Time;durP1;ratioP1;P1;durP2;ratioP2;P2;SDS_P1;SDS_P2;PMS_P1;PMS_P2;Temp;Humidity;BMP_temperature;BMP_pressure;BME280_temperature;BME280_humidity;BME280_pressure;Samples;Min_cycle;Max_cycle;Signal;HPM_P1;HPM_P2
2021/12/21 00:02:24;;;;;;;11.50;4.60;;;0.30;99.90;;;;;;5121220;27;20399;-75
2021/12/21 00:04:50;;;;;;;9.38;6.03;;;0.30;99.90;;;;;;5140480;27;20074;-74
2021/12/21 00:07:16;;;;;;;4.40;3.97;;;0.30;99.90;;;;;;5140029;27;20034;-75
2021/12/21 00:09:41;;;;;;;15.98;6.93;;;0.30;99.90;;;;;;5121410;27;20038;-73
2021/12/21 00:12:08;;;;;;;11.48;6.13;;;0.30;99.90;;;;;;5140759;27;20608;-75
2021/12/21 00:15:19;;;;;;;5.35;4.85;;;0.30;99.90;;;;;;5121130;27;20078;-75
2021/12/21 00:23:30;;;;;;;6.88;5.47;;;0.30;99.90;;;;;;5136298;27;20061;-75
2021/12/21 00:25:30;;;;;;;6.15;4.22;;;0.20;99.90;;;;;;5111101;27;20418;-75
2021/12/21 00:27:55;;;;;;;5.93;4.72;;;0.10;99.90;;;;;;5120981;27;20047;-75
2021/12/21 00:30:22;;;;;;;6.13;4.30;;;0.10;99.90;;;;;;5120856;27;20074;-75
2021/12/21 00:32:48;;;;;;;7.75;4.88;;;0.20;99.90;;;;;;5118454;27;20878;-75
2021/12/21 00:35:14;;;;;;;6.43;4.10;;;0.20;99.90;;;;;;5139006;27;20046;-75
2021/12/21 00:37:41;;;;;;;6.72;4.68;;;0.20;99.90;;;;;;5120476;27;20042;-75
2021/12/21 00:40:08;;;;;;;4.95;4.47;;;0.20;99.90;;;;;;5140217;27;20038;-75
2021/12/21 00:42:34;;;;;;;6.43;5.78;;;0.20;99.90;;;;;;5120703;27;20076;-75
2021/12/21 00:44:59;;;;;;;7.50;5.35;;;0.20;99.90;;;;;;5120911;27;20035;-74
2021/12/21 00:47:25;;;;;;;7.57;5.07;;;0.20;99.90;;;;;;5139281;27;20107;-75
2021/12/21 00:49:58;;;;;;;5.72;5.22;;;0.20;99.90;;;;;;5119999;27;20042;-75
2021/12/21 00:52:25;;;;;;;7.72;5.43;;;0.20;99.90;;;;;;5118817;27;20047;-75
2021/12/21 00:54:51;;;;;;;6.70;5.00;;;0.20;99.90;;;;;;5121617;27;20150;-75
2021/12/21 00:57:17;;;;;;;5.93;5.43;;;0.80;99.90;;;;;;5120703;27;21052;-74
2021/12/21 00:59:43;;;;;;;7.47;5.57;;;0.20;99.90;;;;;;5121515;27;20046;-75
2021/12/21 01:02:09;;;;;;;4.95;4.53;;;0.30;99.90;;;;;;5118966;27;20065;-74
2021/12/21 01:04:40;;;;;;;7.43;4.90;;;0.20;99.90;;;;;;5120075;27;20057;-75
2021/12/21 01:07:18;;;;;;;6.95;5.20;;;0.20;99.90;;;;;;5122234;27;20569;-75
2021/12/21 01:12:48;;;;;;;5.70;4.50;;;0.20;99.90;;;;;;5136054;27;20082;-74
2021/12/21 01:17:51;;;;;;;9.55;5.70;;;0.20;99.90;;;;;;5118272;27;20146;-74
2021/12/21 01:25:41;;;;;;;8.70;5.28;;;0.20;99.90;;;;;;5119144;27;20057;-74
2021/12/21 01:33:39;;;;;;;5.93;5.25;;;0.10;99.90;;;;;;5136662;27;20760;-74
2021/12/21 01:36:14;;;;;;;4.30;3.92;;;0.10;99.90;;;;;;5118222;27;20045;-75
2021/12/21 01:38:52;;;;;;;7.07;5.97;;;0.10;99.90;;;;;;5118970;27;20567;-75
2021/12/21 01:49:31;;;;;;;7.07;6.18;;;0.20;99.90;;;;;;5055771;28;20108;-74
2021/12/21 01:49:55;;;;;;;6.55;5.80;;;0.10;99.90;;;;;;5121896;27;20084;-74
2021/12/21 01:52:24;;;;;;;7.40;5.05;;;0.10;99.90;;;;;;5120064;27;20118;-74
2021/12/21 01:54:51;;;;;;;8.30;5.65;;;0.10;99.90;;;;;;5136011;27;20052;-75
2021/12/21 01:57:17;;;;;;;6.63;5.47;;;0.10;99.90;;;;;;5120881;27;20061;-74
2021/12/21 01:59:45;;;;;;;7.47;5.65;;;0.10;99.90;;;;;;5119936;27;20057;-74
2021/12/21 02:02:13;;;;;;;7.85;6.43;;;0.10;99.90;;;;;;5138850;27;20089;-74
2021/12/21 02:04:40;;;;;;;9.25;5.28;;;0.00;99.90;;;;;;5138783;27;20722;-74
2021/12/21 02:07:07;;;;;;;6.90;5.07;;;0.00;99.90;;;;;;5132119;27;20061;-74
2021/12/21 02:09:39;;;;;;;6.28;5.78;;;0.00;99.90;;;;;;5138478;27;20046;-74
2021/12/21 02:12:14;;;;;;;7.77;6.47;;;0.00;99.90;;;;;;5119247;27;20133;-73
2021/12/21 02:14:42;;;;;;;6.25;5.53;;;0.00;99.90;;;;;;5137467;27;20834;-74
2021/12/21 02:23:19;;;;;;;7.20;6.38;;;0.00;99.90;;;;;;5131179;27;20058;-74
2021/12/21 02:26:08;;;;;;;8.63;5.60;;;0.00;99.90;;;;;;5119270;27;20058;-74
2021/12/21 02:31:00;;;;;;;9.98;6.07;;;0.00;99.90;;;;;;5138687;27;20053;-74
2021/12/21 02:33:26;;;;;;;8.85;6.90;;;0.00;99.90;;;;;;5119184;27;20051;-74
2021/12/21 02:35:54;;;;;;;9.40;7.32;;;-0.10;99.90;;;;;;5119404;27;20039;-74
2021/12/21 02:38:19;;;;;;;10.85;6.68;;;-0.10;99.90;;;;;;5120094;27;20150;-74
2021/12/21 02:40:46;;;;;;;7.65;6.25;;;-0.10;99.90;;;;;;5138680;27;20039;-73
2021/12/21 02:43:13;;;;;;;8.05;6.20;;;-0.10;99.90;;;;;;5119432;27;20050;-73
2021/12/21 02:45:40;;;;;;;9.45;6.68;;;-0.10;99.90;;;;;;5119931;27;20246;-74
2021/12/21 02:48:06;;;;;;;9.77;6.50;;;-0.10;99.90;;;;;;5119215;27;20858;-74
2021/12/21 02:50:32;;;;;;;8.27;5.78;;;-0.10;99.90;;;;;;5137594;27;20057;-74
2021/12/21 02:52:59;;;;;;;7.30;6.05;;;-0.10;99.90;;;;;;5119733;27;20042;-73
2021/12/21 02:55:26;;;;;;;6.18;5.38;;;-0.10;99.90;;;;;;5119813;27;20055;-74
2021/12/21 02:57:52;;;;;;;10.45;7.15;;;-0.10;99.90;;;;;;5137653;27;20054;-74
2021/12/21 03:00:17;;;;;;;14.07;7.13;;;-0.10;99.90;;;;;;5124208;27;20104;-74
2021/12/21 03:02:43;;;;;;;7.80;6.20;;;-0.10;99.90;;;;;;5142873;27;20050;-74
2021/12/21 03:05:09;;;;;;;8.95;6.20;;;-0.10;99.90;;;;;;5124604;27;20043;-73
2021/12/21 03:10:24;;;;;;;11.10;6.40;;;-0.10;99.90;;;;;;5137784;27;20065;-74
2021/12/21 03:15:27;;;;;;;8.82;6.55;;;-0.20;99.90;;;;;;5135744;27;20762;-74
2021/12/21 03:17:55;;;;;;;11.32;5.75;;;-0.10;99.90;;;;;;5119776;27;20047;-74
2021/12/21 03:20:21;;;;;;;10.05;5.75;;;-0.20;99.90;;;;;;5136465;27;20045;-74
2021/12/21 03:22:47;;;;;;;6.70;5.40;;;-0.20;99.90;;;;;;5112441;27;20095;-74
2021/12/21 03:25:13;;;;;;;7.45;5.60;;;-0.20;99.90;;;;;;5141325;27;20043;-74
2021/12/21 03:27:39;;;;;;;7.80;5.22;;;-0.20;99.90;;;;;;5119714;27;20057;-74
2021/12/21 03:30:09;;;;;;;8.45;5.85;;;-0.20;99.90;;;;;;5139510;27;20851;-74
2021/12/21 03:32:34;;;;;;;8.05;5.20;;;-0.20;99.90;;;;;;5123847;27;20055;-74
2021/12/21 03:35:00;;;;;;;7.18;6.32;;;-0.20;99.90;;;;;;5124419;27;20042;-74
2021/12/21 03:37:27;;;;;;;8.18;5.82;;;-0.20;99.90;;;;;;5124542;27;20043;-74
2021/12/21 03:39:54;;;;;;;6.80;5.75;;;-0.20;99.90;;;;;;5136426;27;20138;-74
2021/12/21 03:42:21;;;;;;;6.72;5.35;;;-0.20;99.90;;;;;;5143149;27;20054;-74
2021/12/21 03:44:47;;;;;;;6.38;5.70;;;-0.40;99.90;;;;;;5124075;27;20050;-74
2021/12/21 03:47:15;;;;;;;8.30;6.85;;;-0.30;99.90;;;;;;5123772;27;20049;-74
2021/12/21 03:52:13;;;;;;;8.68;5.78;;;-0.30;99.90;;;;;;5123868;27;20061;-74
2021/12/21 03:54:41;;;;;;;6.50;5.90;;;-0.30;99.90;;;;;;5123708;27;20395;-74
2021/12/21 03:57:06;;;;;;;8.68;5.75;;;-0.30;99.90;;;;;;5122989;27;20054;-74
2021/12/21 03:59:33;;;;;;;7.75;6.20;;;-0.30;99.90;;;;;;5122912;27;20045;-74
2021/12/21 04:01:59;;;;;;;7.70;6.05;;;-0.30;99.90;;;;;;5123727;27;20050;-74
2021/12/21 04:04:25;;;;;;;7.85;5.63;;;-0.30;99.90;;;;;;5123850;27;20091;-73
2021/12/21 04:06:51;;;;;;;10.68;5.70;;;-0.30;99.90;;;;;;5141901;27;20745;-74
2021/12/21 04:09:17;;;;;;;6.80;6.13;;;-0.30;99.90;;;;;;5123341;27;20738;-74
2021/12/21 04:11:42;;;;;;;7.88;5.85;;;-0.30;99.90;;;;;;5121978;27;20054;-74
2021/12/21 04:14:09;;;;;;;12.18;6.38;;;0.80;99.90;;;;;;5141868;27;20086;-74
2021/12/21 04:16:35;;;;;;;9.07;6.03;;;-0.30;99.90;;;;;;5123708;27;20811;-74
2021/12/21 04:19:01;;;;;;;6.18;5.45;;;-0.30;99.90;;;;;;5123045;27;20050;-74
2021/12/21 04:21:27;;;;;;;7.85;7.05;;;-0.40;99.90;;;;;;5123290;27;20043;-74
2021/12/21 04:23:53;;;;;;;8.23;6.40;;;-0.40;99.90;;;;;;5142377;27;20054;-74
2021/12/21 04:26:20;;;;;;;8.48;5.68;;;-0.40;99.90;;;;;;5123819;27;20047;-74
2021/12/21 04:28:45;;;;;;;10.90;7.03;;;-0.40;99.90;;;;;;5123483;27;20050;-74
2021/12/21 04:31:12;;;;;;;7.28;6.57;;;-0.40;99.90;;;;;;5141951;27;20039;-74
2021/12/21 04:33:39;;;;;;;9.60;7.05;;;-0.40;99.90;;;;;;5123261;27;20069;-74
2021/12/21 04:36:05;;;;;;;7.47;6.25;;;-0.40;99.90;;;;;;5141590;27;20043;-73
2021/12/21 04:38:36;;;;;;;11.20;6.10;;;-0.40;99.90;;;;;;5122899;27;20042;-74
2021/12/21 04:41:12;;;;;;;8.13;6.53;;;-0.40;99.90;;;;;;5122208;27;20054;-74
2021/12/21 04:43:38;;;;;;;7.18;5.82;;;-0.40;99.90;;;;;;5141442;27;20107;-74
2021/12/21 04:46:04;;;;;;;8.05;5.55;;;-0.40;99.90;;;;;;5122955;27;20698;-74
2021/12/21 04:48:30;;;;;;;8.80;5.45;;;-0.40;99.90;;;;;;5122400;27;20115;-74
2021/12/21 04:50:56;;;;;;;9.25;6.57;;;-0.40;99.90;;;;;;5122990;27;20053;-74
2021/12/21 04:53:22;;;;;;;10.27;6.85;;;-0.40;99.90;;;;;;5122614;27;20104;-74
2021/12/21 04:55:48;;;;;;;6.28;5.25;;;-0.40;99.90;;;;;;5122015;27;20046;-74
2021/12/21 04:58:13;;;;;;;6.72;5.63;;;-0.40;99.90;;;;;;5122885;27;20374;-74
2021/12/21 05:00:39;;;;;;;7.53;5.72;;;-0.40;99.90;;;;;;5141567;27;20195;-73
2021/12/21 05:03:05;;;;;;;6.32;5.72;;;-0.50;99.90;;;;;;5140953;27;20247;-73
2021/12/21 05:05:31;;;;;;;6.95;6.32;;;-0.50;99.90;;;;;;5122620;27;20051;-74
2021/12/21 05:08:12;;;;;;;8.30;5.83;;;-0.40;99.90;;;;;;5122750;27;20050;-74
2021/12/21 05:10:48;;;;;;;7.88;5.82;;;-0.50;99.90;;;;;;5121774;27;20270;-73
2021/12/21 05:13:15;;;;;;;5.68;5.15;;;-0.50;99.90;;;;;;5141302;27;20053;-74
2021/12/21 05:15:42;;;;;;;8.77;6.05;;;-0.40;99.90;;;;;;5122734;27;20050;-74
2021/12/21 05:18:07;;;;;;;7.88;6.30;;;-0.40;99.90;;;;;;5141098;27;20062;-74
2021/12/21 05:20:33;;;;;;;10.32;6.30;;;-0.50;99.90;;;;;;5141600;27;20050;-74
2021/12/21 05:22:59;;;;;;;7.63;6.38;;;-0.40;99.90;;;;;;5141104;27;20090;-74
2021/12/21 05:25:24;;;;;;;6.95;5.80;;;-0.50;99.90;;;;;;5122106;27;20150;-74
2021/12/21 05:27:50;;;;;;;9.18;6.35;;;-0.50;99.90;;;;;;5141138;27;20382;-74
2021/12/21 05:30:16;;;;;;;13.98;7.05;;;-0.50;99.90;;;;;;5118826;27;20054;-73
2021/12/21 05:32:42;;;;;;;8.95;6.10;;;-0.50;99.90;;;;;;5121899;27;20054;-73
2021/12/21 05:35:09;;;;;;;12.40;6.50;;;-0.50;99.90;;;;;;5141262;27;20078;-73
2021/12/21 05:37:37;;;;;;;8.60;6.35;;;-0.50;99.90;;;;;;5141113;27;20062;-73
2021/12/21 05:42:35;;;;;;;6.93;5.80;;;-0.60;99.90;;;;;;5140838;27;20074;-73
2021/12/21 05:45:01;;;;;;;9.00;6.57;;;-0.60;99.90;;;;;;5121250;27;20718;-73
2021/12/21 05:47:27;;;;;;;8.68;5.60;;;-0.60;99.90;;;;;;5121820;27;20043;-73
2021/12/21 05:49:53;;;;;;;8.63;5.47;;;-0.50;99.90;;;;;;5121919;27;20058;-73
2021/12/21 05:52:18;;;;;;;8.95;5.97;;;-0.60;99.90;;;;;;5139639;27;20125;-73
2021/12/21 05:54:44;;;;;;;9.20;5.72;;;-0.60;99.90;;;;;;5122000;27;20050;-72
2021/12/21 05:57:09;;;;;;;8.35;6.60;;;-0.60;99.90;;;;;;5140484;27;20849;-73
2021/12/21 05:59:35;;;;;;;10.88;6.05;;;-0.60;99.90;;;;;;5139872;27;20831;-73
2021/12/21 06:02:00;;;;;;;5.53;5.03;;;-0.60;99.90;;;;;;5140255;27;20805;-73
2021/12/21 06:04:26;;;;;;;9.13;5.35;;;-0.60;99.90;;;;;;5140231;27;20046;-73
2021/12/21 06:06:52;;;;;;;9.10;6.00;;;-0.60;99.90;;;;;;5121597;27;20054;-73
2021/12/21 06:09:17;;;;;;;8.25;5.07;;;-0.60;99.90;;;;;;5121516;27;20046;-73
2021/12/21 06:11:51;;;;;;;11.38;5.50;;;-0.60;99.90;;;;;;5121108;27;20047;-73
2021/12/21 06:22:45;;;;;;;10.45;4.68;;;-0.60;99.90;;;;;;5121885;27;20053;-73
2021/12/21 06:25:35;;;;;;;6.75;5.00;;;-0.70;99.90;;;;;;5121456;27;20067;-73
2021/12/21 06:28:06;;;;;;;7.70;6.05;;;-0.70;99.90;;;;;;5140073;27;20072;-73
2021/12/21 06:30:33;;;;;;;7.35;4.18;;;-0.70;99.90;;;;;;5117082;27;20058;-73
2021/12/21 06:32:59;;;;;;;6.07;4.57;;;-0.70;99.90;;;;;;5138489;27;20038;-73
2021/12/21 06:35:25;;;;;;;6.15;4.72;;;-0.70;99.90;;;;;;5123505;27;20046;-73
2021/12/21 06:37:50;;;;;;;6.75;4.57;;;-0.70;99.90;;;;;;5120771;27;20082;-73
2021/12/21 06:40:17;;;;;;;6.07;4.60;;;-0.70;99.90;;;;;;5123118;27;20049;-73
2021/12/21 06:42:45;;;;;;;5.57;4.38;;;-0.70;99.90;;;;;;5123187;27;20050;-73
2021/12/21 06:45:24;;;;;;;5.53;3.63;;;-0.70;99.90;;;;;;5141886;27;20134;-73
2021/12/21 06:53:18;;;;;;;7.32;4.70;;;-0.70;99.90;;;;;;5122579;27;20080;-73
2021/12/21 06:55:44;;;;;;;5.63;3.95;;;-0.70;99.90;;;;;;5123175;27;20054;-73
2021/12/21 06:58:09;;;;;;;7.10;4.55;;;-0.70;99.90;;;;;;5123873;27;20038;-73
2021/12/21 07:00:35;;;;;;;8.80;5.03;;;-0.70;99.90;;;;;;5143012;27;20046;-73
2021/12/21 07:03:01;;;;;;;9.63;5.25;;;-0.70;99.90;;;;;;5122765;27;20764;-73
2021/12/21 07:05:27;;;;;;;5.88;4.43;;;-0.80;99.90;;;;;;5123540;27;21371;-73
2021/12/21 07:07:52;;;;;;;7.10;4.40;;;-0.70;99.90;;;;;;5142812;27;20052;-73
2021/12/21 07:10:23;;;;;;;5.97;4.82;;;-0.70;99.90;;;;;;5123373;27;20046;-73
2021/12/21 07:20:25;;;;;;;6.72;4.65;;;-0.70;99.90;;;;;;5141849;27;20051;-73
2021/12/21 07:22:51;;;;;;;4.88;4.20;;;-0.70;99.90;;;;;;5122215;27;20049;-74
2021/12/21 07:25:16;;;;;;;8.82;6.32;;;-0.70;99.90;;;;;;5130850;27;20088;-73
2021/12/21 07:27:42;;;;;;;6.25;3.85;;;-0.70;99.90;;;;;;5104130;27;20548;-72
2021/12/21 07:30:08;;;;;;;6.45;4.20;;;-0.70;99.90;;;;;;5125442;27;20070;-73
2021/12/21 07:32:34;;;;;;;9.68;4.07;;;-0.70;99.90;;;;;;5106029;27;20680;-74
2021/12/21 07:35:00;;;;;;;5.95;4.85;;;-0.70;99.90;;;;;;5109107;27;20233;-73
2021/12/21 07:37:26;;;;;;;5.40;3.97;;;-0.70;99.90;;;;;;5120580;27;20045;-73
2021/12/21 07:39:53;;;;;;;5.93;4.55;;;-0.60;99.90;;;;;;5116438;27;20174;-73
2021/12/21 07:42:20;;;;;;;6.95;4.22;;;-0.70;99.90;;;;;;5109230;27;20046;-73
2021/12/21 07:44:46;;;;;;;6.85;5.05;;;-0.70;99.90;;;;;;5138191;27;20095;-73
2021/12/21 07:47:12;;;;;;;4.47;4.13;;;0.20;99.90;;;;;;5106463;27;20043;-73
2021/12/21 07:49:38;;;;;;;4.72;4.22;;;-0.70;99.90;;;;;;5113167;27;20277;-74
2021/12/21 07:52:07;;;;;;;6.10;4.22;;;-0.70;99.90;;;;;;5131528;27;20030;-74
2021/12/21 07:54:33;;;;;;;6.57;4.00;;;-0.70;99.90;;;;;;5136177;27;20046;-74
2021/12/21 07:56:58;;;;;;;6.90;4.60;;;-0.70;99.90;;;;;;5111017;27;20093;-74
2021/12/21 07:59:24;;;;;;;6.85;4.55;;;-0.70;99.90;;;;;;5136190;27;20691;-74
2021/12/21 08:01:50;;;;;;;6.50;4.75;;;-0.60;99.90;;;;;;5112567;27;20046;-74
2021/12/21 08:04:16;;;;;;;8.95;5.30;;;-0.60;99.90;;;;;;5135274;27;20889;-74
2021/12/21 08:06:44;;;;;;;7.10;4.53;;;-0.60;99.90;;;;;;5114930;27;20636;-74
2021/12/21 08:09:10;;;;;;;9.05;4.55;;;-0.60;99.90;;;;;;5138391;27;20924;-74
2021/12/21 08:14:03;;;;;;;5.13;4.28;;;-0.70;99.90;;;;;;5118066;27;20093;-74
2021/12/21 08:16:29;;;;;;;8.63;4.70;;;-0.60;99.90;;;;;;5137618;27;20588;-74
2021/12/21 08:18:55;;;;;;;7.38;4.00;;;-0.80;99.90;;;;;;5119171;27;20145;-74
2021/12/21 08:21:22;;;;;;;7.78;4.60;;;-0.80;99.90;;;;;;5118354;27;20155;-74
2021/12/21 08:23:48;;;;;;;5.78;4.10;;;-0.80;99.90;;;;;;5135215;27;20175;-74
2021/12/21 08:26:14;;;;;;;9.32;4.57;;;-0.70;99.90;;;;;;5137589;27;20068;-74
2021/12/21 08:28:40;;;;;;;5.07;4.57;;;-1.10;99.90;;;;;;5136866;27;20970;-74
2021/12/21 08:31:12;;;;;;;8.27;4.72;;;-0.70;99.90;;;;;;5118652;27;20089;-74
2021/12/21 08:33:38;;;;;;;4.78;4.07;;;-0.60;99.90;;;;;;5137437;27;20042;-74
2021/12/21 08:36:05;;;;;;;5.53;4.47;;;-0.70;99.90;;;;;;5118513;27;20047;-74
2021/12/21 08:38:32;;;;;;;6.78;4.93;;;-0.60;99.90;;;;;;5118746;27;20050;-74
2021/12/21 08:40:59;;;;;;;8.55;4.18;;;-0.60;99.90;;;;;;5118080;27;20034;-74
2021/12/21 08:43:28;;;;;;;6.80;4.55;;;-0.50;99.90;;;;;;5120870;27;20073;-75
2021/12/21 08:45:55;;;;;;;9.77;4.63;;;-0.50;99.90;;;;;;5139437;27;20130;-74
2021/12/21 08:48:22;;;;;;;6.70;4.60;;;-0.50;99.90;;;;;;5119750;27;20174;-75
2021/12/21 08:50:50;;;;;;;7.43;5.10;;;-0.50;99.90;;;;;;5139050;27;20122;-74
2021/12/21 08:53:16;;;;;;;7.50;5.30;;;-0.50;99.90;;;;;;5119599;27;20072;-74
2021/12/21 08:55:44;;;;;;;11.10;5.00;;;-0.40;99.90;;;;;;5137439;27;20049;-74
2021/12/21 08:58:10;;;;;;;9.73;5.00;;;-0.40;99.90;;;;;;5118728;27;20050;-74
2021/12/21 09:00:37;;;;;;;9.00;6.38;;;-0.40;99.90;;;;;;5118959;27;20042;-74
2021/12/21 09:03:03;;;;;;;5.70;4.72;;;-0.40;99.90;;;;;;5137057;27;20049;-75
2021/12/21 09:05:31;;;;;;;8.00;5.38;;;-0.30;99.90;;;;;;5137371;27;20050;-74
2021/12/21 09:07:58;;;;;;;8.95;5.03;;;-0.30;99.90;;;;;;5118632;27;20083;-75
2021/12/21 09:10:25;;;;;;;7.45;5.88;;;-0.20;99.90;;;;;;5118112;27;20050;-75
2021/12/21 09:12:51;;;;;;;9.63;5.47;;;-0.20;99.90;;;;;;5119065;27;20050;-75
2021/12/21 09:15:18;;;;;;;11.98;6.40;;;-0.10;99.90;;;;;;5118917;27;20043;-75
2021/12/21 09:17:44;;;;;;;9.60;6.72;;;-0.10;99.90;;;;;;5136936;27;20042;-75
2021/12/21 09:20:13;;;;;;;10.05;6.45;;;0.00;99.90;;;;;;5137121;27;20050;-75
2021/12/21 09:22:39;;;;;;;11.10;7.15;;;0.10;99.90;;;;;;5138070;27;20685;-75
2021/12/21 09:25:06;;;;;;;7.70;6.18;;;0.10;99.90;;;;;;5137751;27;20050;-75
2021/12/21 09:27:31;;;;;;;9.68;7.13;;;0.10;99.90;;;;;;5140407;27;20126;-75
2021/12/21 09:29:57;;;;;;;9.45;7.32;;;0.20;99.90;;;;;;5120871;27;20042;-75
2021/12/21 09:32:24;;;;;;;9.85;7.05;;;0.20;99.90;;;;;;5122131;27;20150;-75
2021/12/21 09:34:50;;;;;;;10.15;7.53;;;0.20;99.90;;;;;;5122232;27;20482;-76
2021/12/21 09:37:19;;;;;;;7.22;6.32;;;0.30;99.90;;;;;;4760344;27;10000195;-74
2021/12/21 09:39:48;;;;;;;14.85;7.40;;;0.30;99.90;;;;;;5135669;27;20053;-76
2021/12/21 09:42:16;;;;;;;7.97;7.18;;;0.40;99.90;;;;;;5133456;27;20710;-76
2021/12/21 09:44:42;;;;;;;11.52;7.38;;;0.50;99.90;;;;;;5117079;27;20053;-76
2021/12/21 09:47:09;;;;;;;14.57;9.32;;;0.50;99.90;;;;;;5118411;27;20046;-76
2021/12/21 09:49:36;;;;;;;10.60;7.07;;;0.60;99.90;;;;;;5119780;27;20145;-80
2021/12/21 09:52:04;;;;;;;8.30;6.30;;;0.60;99.90;;;;;;5117609;27;20126;-74
2021/12/21 09:54:32;;;;;;;11.82;7.45;;;0.70;99.90;;;;;;5116470;27;20062;-78
2021/12/21 09:56:57;;;;;;;9.65;6.80;;;1.00;99.90;;;;;;5129671;27;20084;-81
2021/12/21 09:59:23;;;;;;;10.25;8.07;;;0.80;99.90;;;;;;5133332;27;20138;-74
2021/12/21 10:01:49;;;;;;;14.50;7.82;;;0.80;99.90;;;;;;5135237;27;20905;-79
2021/12/21 10:04:14;;;;;;;15.10;9.50;;;0.90;99.90;;;;;;5117379;27;20061;-79
2021/12/21 10:06:49;;;;;;;8.25;6.90;;;0.90;99.90;;;;;;5117916;27;20103;-77
2021/12/21 10:09:19;;;;;;;8.18;7.15;;;1.00;99.90;;;;;;5117306;27;20053;-79
2021/12/21 10:11:50;;;;;;;14.57;7.65;;;1.10;99.90;;;;;;5115765;27;20050;-79
2021/12/21 10:14:17;;;;;;;8.88;7.97;;;1.20;99.90;;;;;;5136043;27;20047;-79
2021/12/21 10:16:45;;;;;;;10.45;8.95;;;1.20;99.90;;;;;;5116647;27;20865;-80
2021/12/21 10:19:21;;;;;;;11.52;7.50;;;1.20;99.90;;;;;;5135040;27;20876;-80
2021/12/21 10:21:47;;;;;;;9.80;7.38;;;1.30;99.90;;;;;;5114787;27;20129;-80
2021/12/21 10:24:27;;;;;;;7.95;6.97;;;1.30;99.90;;;;;;5134636;27;20053;-80
2021/12/21 10:27:12;;;;;;;11.32;7.80;;;1.40;99.90;;;;;;5116682;27;20462;-80
2021/12/21 10:29:45;;;;;;;10.35;8.45;;;1.40;99.90;;;;;;5115679;27;20532;-80
2021/12/21 10:32:29;;;;;;;12.82;8.10;;;1.50;99.90;;;;;;5117504;27;20043;-80
2021/12/21 10:35:10;;;;;;;10.02;7.45;;;1.50;99.90;;;;;;5115352;27;20051;-80
2021/12/21 10:37:39;;;;;;;9.50;7.80;;;1.60;99.90;;;;;;5116759;27;20703;-80
2021/12/21 10:40:24;;;;;;;10.63;6.80;;;1.60;99.90;;;;;;5116673;27;20077;-81
2021/12/21 10:42:56;;;;;;;10.00;6.53;;;1.70;99.90;;;;;;5115791;27;20047;-81
2021/12/21 10:45:32;;;;;;;8.43;6.10;;;1.70;99.90;;;;;;5113798;27;20085;-81
2021/12/21 10:48:00;;;;;;;9.07;6.15;;;1.80;99.90;;;;;;5116773;27;20474;-81
2021/12/21 10:50:28;;;;;;;7.32;5.60;;;1.80;99.90;;;;;;5135199;27;20138;-81
2021/12/21 10:52:57;;;;;;;9.90;6.32;;;1.90;99.90;;;;;;5138634;27;20051;-72
2021/12/21 10:55:27;;;;;;;8.95;7.35;;;1.90;99.90;;;;;;5119632;27;20119;-82
2021/12/21 10:58:15;;;;;;;10.32;6.72;;;1.90;99.90;;;;;;5136717;27;20043;-81
2021/12/21 11:01:03;;;;;;;11.90;6.43;;;2.00;99.90;;;;;;5111976;27;20039;-81
2021/12/21 11:03:37;;;;;;;14.70;6.72;;;2.10;99.90;;;;;;5114623;27;20825;-81
2021/12/21 11:06:12;;;;;;;15.35;5.68;;;2.10;99.90;;;;;;5136186;27;20042;-82
2021/12/21 11:08:39;;;;;;;9.50;6.80;;;2.10;99.90;;;;;;5117886;27;20046;-82
2021/12/21 11:11:10;;;;;;;13.35;6.82;;;2.20;99.90;;;;;;5118428;27;20086;-81
2021/12/21 11:13:36;;;;;;;13.15;6.47;;;2.20;99.90;;;;;;5136424;27;20046;-82
2021/12/21 11:16:06;;;;;;;9.63;6.20;;;2.30;99.90;;;;;;5118694;27;20049;-81
2021/12/21 11:18:33;;;;;;;8.07;5.97;;;2.40;99.90;;;;;;5119723;27;20047;-82
2021/12/21 11:20:59;;;;;;;9.32;7.60;;;2.40;99.90;;;;;;5121522;27;20629;-82
2021/12/21 11:23:26;;;;;;;10.77;5.78;;;2.40;99.90;;;;;;5140286;27;20052;-82
2021/12/21 11:25:54;;;;;;;10.93;5.88;;;2.50;99.90;;;;;;5122900;27;20058;-82
2021/12/21 11:28:29;;;;;;;8.07;6.32;;;2.50;99.90;;;;;;5122522;27;20050;-82
2021/12/21 11:31:00;;;;;;;10.70;7.13;;;2.60;99.90;;;;;;5133462;27;20125;-82
2021/12/21 11:33:27;;;;;;;10.32;6.40;;;2.70;99.90;;;;;;5122245;27;20043;-82
2021/12/21 11:38:39;;;;;;;8.27;6.53;;;2.70;99.90;;;;;;5121594;27;20074;-82
2021/12/21 11:41:05;;;;;;;11.90;5.88;;;2.70;99.90;;;;;;5121762;27;20474;-82
2021/12/21 11:43:40;;;;;;;10.40;5.97;;;2.80;99.90;;;;;;5121834;27;20054;-82
2021/12/21 11:46:09;;;;;;;9.38;5.53;;;2.80;99.90;;;;;;5140959;27;20039;-82
2021/12/21 11:48:46;;;;;;;7.20;5.57;;;2.80;99.90;;;;;;5122191;27;20409;-81
2021/12/21 11:51:13;;;;;;;7.57;5.95;;;2.90;99.90;;;;;;5139522;27;20043;-82
2021/12/21 11:53:39;;;;;;;7.97;5.85;;;2.90;99.90;;;;;;5121457;27;20042;-82
2021/12/21 11:56:07;;;;;;;8.35;6.47;;;2.90;99.90;;;;;;5139208;27;20551;-82
2021/12/21 11:58:39;;;;;;;7.25;5.97;;;3.00;99.90;;;;;;5121192;27;20042;-82
2021/12/21 12:01:13;;;;;;;8.73;5.05;;;3.00;99.90;;;;;;5122424;27;20043;-82
2021/12/21 12:03:44;;;;;;;13.60;7.47;;;3.10;99.90;;;;;;5121611;27;20103;-82
2021/12/21 12:06:15;;;;;;;6.78;5.95;;;3.10;99.90;;;;;;5121258;27;20047;-81
2021/12/21 12:08:51;;;;;;;12.85;6.18;;;3.20;99.90;;;;;;5117964;27;20039;-82
2021/12/21 12:11:39;;;;;;;7.63;5.68;;;3.20;99.90;;;;;;5108958;27;20489;-81
2021/12/21 12:14:07;;;;;;;7.35;5.20;;;3.30;99.90;;;;;;5117782;27;20114;-82
2021/12/21 12:16:50;;;;;;;5.80;5.18;;;3.20;99.90;;;;;;5119261;27;20075;-81
2021/12/21 12:19:20;;;;;;;6.45;5.28;;;3.30;99.90;;;;;;5119999;27;20114;-81
2021/12/21 12:21:55;;;;;;;8.38;5.78;;;3.40;99.90;;;;;;5118863;27;20043;-82
2021/12/21 12:24:23;;;;;;;6.05;4.65;;;3.40;99.90;;;;;;5116532;27;20053;-81
2021/12/21 12:27:14;;;;;;;10.35;6.45;;;3.40;99.90;;;;;;5119052;27;20058;-81
2021/12/21 12:29:52;;;;;;;11.85;5.28;;;3.40;99.90;;;;;;5118584;27;20827;-81
2021/12/21 12:32:38;;;;;;;5.85;4.40;;;3.50;99.90;;;;;;5117986;27;20149;-81
2021/12/21 12:35:09;;;;;;;6.32;4.72;;;3.50;99.90;;;;;;5117778;27;20031;-81
2021/12/21 12:37:57;;;;;;;13.88;5.47;;;3.50;99.90;;;;;;5116865;27;20167;-82
2021/12/21 12:40:32;;;;;;;8.38;5.07;;;3.50;99.90;;;;;;5117440;27;20070;-81
2021/12/21 12:43:17;;;;;;;14.35;4.90;;;3.50;99.90;;;;;;5117494;27;20047;-81
2021/12/21 12:45:53;;;;;;;10.60;5.30;;;3.60;99.90;;;;;;5116244;27;20058;-80
2021/12/21 12:48:24;;;;;;;8.43;5.15;;;3.60;99.90;;;;;;5116003;27;20185;-80
2021/12/21 12:50:53;;;;;;;6.30;4.38;;;3.60;99.90;;;;;;5117795;27;20131;-81
2021/12/21 12:53:19;;;;;;;4.88;4.10;;;3.70;99.90;;;;;;5117982;27;20197;-81
2021/12/21 12:55:54;;;;;;;10.65;4.95;;;3.70;99.90;;;;;;5118295;27;20050;-81
2021/12/21 12:58:22;;;;;;;11.07;5.20;;;3.70;99.90;;;;;;5118721;27;20058;-80
2021/12/21 13:01:03;;;;;;;7.53;5.45;;;3.70;99.90;;;;;;5117958;27;20079;-81
2021/12/21 13:03:36;;;;;;;7.95;4.47;;;3.60;99.90;;;;;;5105883;27;20038;-81
2021/12/21 13:06:11;;;;;;;5.97;4.88;;;3.60;99.90;;;;;;5113707;27;20043;-81
2021/12/21 13:08:37;;;;;;;5.43;3.42;;;3.60;99.90;;;;;;5107608;27;20121;-81
2021/12/21 13:11:02;;;;;;;5.97;3.88;;;3.60;99.90;;;;;;5113917;27;20831;-81
2021/12/21 13:13:32;;;;;;;6.97;3.33;;;3.60;99.90;;;;;;5112041;27;20047;-81
2021/12/21 13:16:07;;;;;;;8.43;4.10;;;3.60;99.90;;;;;;5112140;27;20689;-81
2021/12/21 13:18:42;;;;;;;6.28;4.50;;;3.60;99.90;;;;;;5110766;27;20478;-81
2021/12/21 13:21:16;;;;;;;6.10;3.65;;;3.60;99.90;;;;;;5120943;27;20113;-82
2021/12/21 13:23:42;;;;;;;14.55;5.20;;;3.60;99.90;;;;;;5108666;27;20264;-82
2021/12/21 13:26:08;;;;;;;6.22;3.45;;;3.50;99.90;;;;;;5114336;27;20038;-82
2021/12/21 13:28:53;;;;;;;5.47;4.50;;;3.50;99.90;;;;;;5114059;27;20127;-82
2021/12/21 13:31:22;;;;;;;4.10;3.47;;;3.50;99.90;;;;;;5125802;27;20778;-82
2021/12/21 13:33:56;;;;;;;4.57;3.80;;;3.50;99.90;;;;;;5121811;27;20047;-82
2021/12/21 13:36:43;;;;;;;4.00;3.35;;;3.50;99.90;;;;;;5114268;27;20043;-81
2021/12/21 13:39:49;;;;;;;8.02;4.15;;;3.50;99.90;;;;;;5111226;27;20604;-81
2021/12/21 13:42:21;;;;;;;5.20;4.03;;;3.50;99.90;;;;;;5094579;27;20799;-81
2021/12/21 13:44:59;;;;;;;4.45;2.97;;;3.50;99.90;;;;;;5109259;27;20070;-81
2021/12/21 13:47:37;;;;;;;7.43;3.83;;;3.50;99.90;;;;;;5109871;27;20872;-81
2021/12/21 13:50:13;;;;;;;5.35;3.50;;;3.40;99.90;;;;;;5105842;27;20489;-82
2021/12/21 13:52:46;;;;;;;5.53;3.95;;;3.50;99.90;;;;;;5120187;27;20126;-81
2021/12/21 13:55:27;;;;;;;6.70;3.88;;;3.40;99.90;;;;;;5112905;27;20708;-78
2021/12/21 13:57:55;;;;;;;5.13;3.40;;;3.50;99.90;;;;;;5112755;27;20051;-78
2021/12/21 14:00:26;;;;;;;4.97;3.30;;;3.50;99.90;;;;;;5111809;27;20035;-78
2021/12/21 14:03:03;;;;;;;9.95;3.67;;;3.50;99.90;;;;;;5117316;27;20538;-81
2021/12/21 14:05:48;;;;;;;4.50;3.42;;;3.40;99.90;;;;;;5119969;27;20047;-82
2021/12/21 14:08:16;;;;;;;10.65;4.45;;;3.40;99.90;;;;;;5118336;27;20883;-82
2021/12/21 14:10:46;;;;;;;6.70;4.03;;;3.40;99.90;;;;;;5116250;27;20078;-82
2021/12/21 14:13:12;;;;;;;7.20;3.95;;;3.40;99.90;;;;;;5117794;27;20073;-82
2021/12/21 14:15:39;;;;;;;6.63;4.45;;;3.40;99.90;;;;;;5118200;27;20311;-82